Terminal Aerodrome Forecast
Issued by NWS

Home | Current Version | Previous Version | Text Only | Print | Product List | Glossary On
Versions: 1 2 3 4 5 6 7 8 9 10 11 12
000
FTAK31 PANC 201137
TAFAVD
TAF
PAVD 201137Z 2012/2112 11005KT P6SM SKC
     FM201500 08007KT P6SM SCT200
     FM210200 09004KT P6SM VCSH BKN050 OVC100
      AMD LTD TO CLD VIS AND WIND=

USA.gov is the U.S. government's official web portal to all federal, state and local government web resources and services.